Time;durP1;ratioP1;P1;durP2;ratioP2;P2;SDS_P1;SDS_P2;PMS_P1;PMS_P2;Temp;Humidity;BMP_temperature;BMP_pressure;BME280_temperature;BME280_humidity;BME280_pressure;Samples;Min_cycle;Max_cycle;Signal;HPM_P1;HPM_P2
2020/12/06 00:11:08;;;;;;;61.95;29.50;;;;;;;7.08;100.00;100145.61;10466700;82;20224;-82
2020/12/06 00:26:13;;;;;;;116.77;41.35;;;;;;;6.96;100.00;100143.45;10531004;82;21096;-82
2020/12/06 00:41:19;;;;;;;58.35;29.40;;;;;;;6.75;100.00;100134.16;10537839;82;21038;-81
2020/12/06 00:56:23;;;;;;;191.43;76.95;;;;;;;6.63;100.00;100144.20;10527774;82;21374;-81
2020/12/06 01:11:27;;;;;;;52.40;27.32;;;;;;;6.67;100.00;100152.15;10803563;82;21029;-82
2020/12/06 01:26:31;;;;;;;55.98;29.75;;;;;;;6.59;100.00;100144.07;10816897;82;21018;-82
2020/12/06 01:41:36;;;;;;;54.98;26.95;;;;;;;6.55;100.00;100146.06;10731846;82;21069;-82
2020/12/06 01:56:40;;;;;;;62.20;29.77;;;;;;;6.63;100.00;100148.93;10827463;82;21063;-80
2020/12/06 02:11:45;;;;;;;49.10;26.97;;;;;;;6.74;100.00;100163.77;10812142;82;21056;-81
2020/12/06 02:26:51;;;;;;;48.05;26.05;;;;;;;6.94;100.00;100164.07;10790891;82;21132;-80
2020/12/06 02:41:55;;;;;;;46.18;27.05;;;;;;;6.86;100.00;100150.78;10693632;82;21471;-81
2020/12/06 02:56:59;;;;;;;47.15;24.72;;;;;;;6.93;100.00;100143.69;10742208;82;21072;-83
2020/12/06 03:12:04;;;;;;;50.83;29.37;;;;;;;7.10;100.00;100145.48;10727326;82;21060;-84
2020/12/06 03:27:08;;;;;;;59.73;36.03;;;;;;;7.05;100.00;100141.94;10714489;82;21034;-83
2020/12/06 03:42:12;;;;;;;54.18;28.35;;;;;;;7.08;100.00;100153.92;10637672;82;21096;-83
2020/12/06 03:57:16;;;;;;;47.62;24.72;;;;;;;7.11;100.00;100157.59;10685438;82;21056;-83
2020/12/06 04:12:21;;;;;;;45.08;26.45;;;;;;;7.10;100.00;100154.16;10466977;84;21053;-83
2020/12/06 04:27:25;;;;;;;47.35;25.08;;;;;;;7.05;100.00;100151.07;10495173;83;21113;-82
2020/12/06 04:42:30;;;;;;;42.33;23.70;;;;;;;7.11;100.00;100154.98;10483522;84;21127;-82
2020/12/06 04:57:37;;;;;;;40.48;24.30;;;;;;;7.12;100.00;100160.08;10407913;83;21139;-83
2020/12/06 05:12:42;;;;;;;61.03;32.30;;;;;;;7.18;100.00;100175.77;10800790;82;21492;-84
2020/12/06 05:27:47;;;;;;;47.70;24.20;;;;;;;7.10;100.00;100165.91;10858073;82;21482;-81
2020/12/06 05:42:51;;;;;;;50.78;25.65;;;;;;;7.20;100.00;100181.68;10858017;82;21004;-81
2020/12/06 05:57:57;;;;;;;46.55;25.12;;;;;;;7.13;100.00;100187.84;10828251;82;21012;-81
2020/12/06 06:13:06;;;;;;;58.15;31.80;;;;;;;7.11;100.00;100213.22;10652716;83;21239;-84
2020/12/06 06:28:11;;;;;;;43.10;24.07;;;;;;;7.06;100.00;100227.08;10596812;82;21248;-83
2020/12/06 06:43:18;;;;;;;63.58;34.43;;;;;;;7.13;100.00;100224.36;10621624;82;21071;-84
2020/12/06 06:58:29;;;;;;;51.93;27.60;;;;;;;6.92;100.00;100245.52;10479436;83;21136;-83
2020/12/06 07:13:33;;;;;;;41.75;21.57;;;;;;;7.09;100.00;100258.15;10818112;82;21047;-82
2020/12/06 07:28:39;;;;;;;68.57;30.65;;;;;;;6.99;100.00;100263.67;10565760;84;21122;-82
2020/12/06 07:43:43;;;;;;;46.88;24.57;;;;;;;6.82;100.00;100267.06;10534331;83;21356;-82
2020/12/06 07:59:22;;;;;;;91.78;42.80;;;;;;;6.77;100.00;100250.06;10810923;81;21119;-82
2020/12/06 08:14:27;;;;;;;75.47;32.10;;;;;;;6.73;100.00;100258.59;10533169;83;21033;-82
2020/12/06 08:29:46;;;;;;;98.67;40.20;;;;;;;6.74;100.00;100263.33;10729950;81;21191;-82
2020/12/06 08:45:00;;;;;;;64.42;30.80;;;;;;;6.87;100.00;100273.71;10680688;81;21112;-83
2020/12/06 09:00:04;;;;;;;73.62;34.10;;;;;;;6.90;100.00;100286.52;10716866;81;21052;-84
2020/12/06 09:15:10;;;;;;;81.40;38.67;;;;;;;6.71;100.00;100283.94;10770509;80;21729;-82
2020/12/06 09:30:14;;;;;;;143.97;63.48;;;;;;;6.72;100.00;100286.91;10777504;80;21128;-82
2020/12/06 09:45:18;;;;;;;104.72;43.92;;;;;;;6.49;100.00;100296.36;10785234;80;21516;-83
2020/12/06 10:00:23;;;;;;;51.92;26.65;;;;;;;6.75;100.00;100272.34;10771489;80;21047;-82
2020/12/06 10:15:27;;;;;;;88.40;35.03;;;;;;;6.72;100.00;100268.66;10781080;81;21189;-82
2020/12/06 10:30:32;;;;;;;63.48;22.77;;;;;;;6.81;100.00;100265.88;10769080;81;21187;-83
2020/12/06 10:45:36;;;;;;;54.93;22.25;;;;;;;6.79;100.00;100252.92;10756881;81;21085;-84
2020/12/06 11:00:40;;;;;;;82.57;27.27;;;;;;;6.47;100.00;100241.74;10743696;81;21068;-84
2020/12/06 11:15:44;;;;;;;283.73;80.60;;;;;;;6.34;100.00;100237.05;10612710;82;21074;-84
2020/12/06 11:30:49;;;;;;;249.05;92.30;;;;;;;6.21;100.00;100236.26;10639474;83;21112;-83
2020/12/06 11:45:53;;;;;;;105.15;38.10;;;;;;;6.24;100.00;100226.91;10637517;82;21127;-84
2020/12/06 12:00:59;;;;;;;102.78;36.25;;;;;;;6.14;100.00;100205.42;10562829;82;22205;-83
2020/12/06 12:16:04;;;;;;;137.95;42.43;;;;;;;6.14;100.00;100200.70;10746643;81;20985;-84
2020/12/06 12:31:08;;;;;;;79.37;42.98;;;;;;;6.08;100.00;100180.28;10791063;81;21470;-85
2020/12/06 12:46:14;;;;;;;104.83;33.10;;;;;;;5.87;100.00;100173.00;10775099;81;21095;-82
2020/12/06 13:01:22;;;;;;;61.05;23.12;;;;;;;6.13;100.00;100179.48;10753752;81;21079;-82
2020/12/06 13:16:27;;;;;;;58.08;23.57;;;;;;;5.95;100.00;100192.00;10699840;81;21016;-82
2020/12/06 13:31:33;;;;;;;139.43;46.50;;;;;;;5.72;100.00;100202.73;10820729;81;21063;-84
2020/12/06 13:46:38;;;;;;;57.60;22.98;;;;;;;5.40;100.00;100206.59;10816849;81;21067;-84
2020/12/06 14:01:47;;;;;;;57.38;19.85;;;;;;;5.35;100.00;100219.07;10812343;81;21627;-83
2020/12/06 14:16:52;;;;;;;94.70;39.65;;;;;;;5.18;100.00;100227.17;10715314;80;21020;-84
2020/12/06 14:31:57;;;;;;;131.67;43.87;;;;;;;5.16;100.00;100238.50;10709420;80;21138;-84
2020/12/06 14:47:02;;;;;;;149.68;56.68;;;;;;;4.88;100.00;100223.05;10749641;80;21567;-84
2020/12/06 15:02:06;;;;;;;95.45;39.13;;;;;;;4.81;100.00;100226.52;10752791;80;21095;-84
2020/12/06 15:17:11;;;;;;;65.52;26.70;;;;;;;4.70;100.00;100230.26;10619445;82;21225;-84
2020/12/06 15:32:16;;;;;;;61.83;26.95;;;;;;;4.74;100.00;100239.52;10593748;82;21493;-84
2020/12/06 15:47:21;;;;;;;66.80;25.80;;;;;;;4.79;100.00;100230.52;10648862;82;21072;-85
2020/12/06 16:02:26;;;;;;;79.05;29.95;;;;;;;4.71;100.00;100232.78;10645792;82;21044;-84
2020/12/06 16:17:30;;;;;;;63.00;26.85;;;;;;;4.82;100.00;100232.09;10691112;82;21020;-85
2020/12/06 16:32:34;;;;;;;182.47;56.23;;;;;;;4.53;100.00;100219.64;10749317;82;21456;-85
2020/12/06 16:47:40;;;;;;;81.28;33.10;;;;;;;4.45;100.00;100213.66;10723053;82;21086;-84
2020/12/06 17:02:45;;;;;;;86.45;35.45;;;;;;;4.48;100.00;100236.36;10732872;82;21111;-84
2020/12/06 17:17:50;;;;;;;45.67;29.80;;;;;;;4.37;100.00;100239.27;10714848;82;21068;-84
2020/12/06 17:32:56;;;;;;;39.50;19.05;;;;;;;4.28;100.00;100227.23;10700769;82;22180;-84
2020/12/06 17:48:00;;;;;;;49.50;21.85;;;;;;;4.20;100.00;100232.53;10699943;81;21036;-84
2020/12/06 18:03:05;;;;;;;63.87;24.77;;;;;;;4.18;100.00;100236.52;10584681;82;21096;-84
2020/12/06 18:18:10;;;;;;;114.30;37.50;;;;;;;4.06;100.00;100225.61;10548888;82;21084;-84
2020/12/06 18:33:15;;;;;;;92.80;32.45;;;;;;;4.18;100.00;100239.59;10549544;82;21064;-85
2020/12/06 18:48:20;;;;;;;106.15;38.80;;;;;;;4.11;100.00;100251.65;10555834;82;21034;-83
2020/12/06 19:03:24;;;;;;;86.47;32.83;;;;;;;4.10;100.00;100246.08;10321288;83;21009;-84
2020/12/06 19:18:29;;;;;;;71.02;27.20;;;;;;;3.97;100.00;100243.42;10456361;83;21116;-84
2020/12/06 19:33:34;;;;;;;64.17;26.80;;;;;;;4.13;100.00;100238.56;10624133;82;21046;-84
2020/12/06 19:48:40;;;;;;;36.50;18.95;;;;;;;4.00;100.00;100212.08;10660987;82;21084;-83
2020/12/06 20:03:45;;;;;;;58.50;24.35;;;;;;;3.84;100.00;100207.47;10712469;80;21151;-83
2020/12/06 20:18:49;;;;;;;43.65;19.70;;;;;;;3.92;100.00;100217.36;10717663;80;21137;-84
2020/12/06 20:33:55;;;;;;;39.38;18.27;;;;;;;3.81;100.00;100190.33;10701187;80;21056;-84
2020/12/06 20:48:59;;;;;;;33.33;17.92;;;;;;;3.70;100.00;100179.75;10761646;80;21563;-84
2020/12/06 21:04:05;;;;;;;29.07;15.15;;;;;;;3.77;100.00;100190.59;10806249;80;21199;-84
2020/12/06 21:19:09;;;;;;;39.73;16.25;;;;;;;3.63;100.00;100162.91;10781023;82;21504;-84
2020/12/06 21:34:14;;;;;;;34.15;17.17;;;;;;;3.65;100.00;100189.10;10719256;82;21018;-84
2020/12/06 21:49:20;;;;;;;26.60;15.08;;;;;;;3.64;100.00;100177.52;10496575;83;21085;-84
2020/12/06 22:04:27;;;;;;;30.32;15.18;;;;;;;3.47;100.00;100162.98;10726137;81;21064;-83
2020/12/06 22:19:33;;;;;;;28.65;13.43;;;;;;;3.43;100.00;100148.09;10775713;82;21083;-84
2020/12/06 22:34:37;;;;;;;28.23;14.90;;;;;;;3.44;100.00;100150.20;10773830;82;21048;-84
2020/12/06 22:49:46;;;;;;;26.57;13.28;;;;;;;3.35;100.00;100154.17;10775936;82;21079;-84
2020/12/06 23:04:53;;;;;;;23.27;13.28;;;;;;;3.32;100.00;100165.56;10696528;82;21030;-84
2020/12/06 23:19:57;;;;;;;25.48;12.90;;;;;;;3.35;100.00;100164.55;10661973;82;21087;-82
2020/12/06 23:35:02;;;;;;;25.17;13.60;;;;;;;3.26;100.00;100158.17;10700044;81;21100;-83
2020/12/06 23:50:07;;;;;;;22.75;12.68;;;;;;;3.32;100.00;100140.93;10639705;81;21084;-86
